Time;durP1;ratioP1;P1;durP2;ratioP2;P2;SDS_P1;SDS_P2;PMS_P1;PMS_P2;Temp;Humidity;BMP_temperature;BMP_pressure;BME280_temperature;BME280_humidity;BME280_pressure;Samples;Min_cycle;Max_cycle;Signal;HPM_P1;HPM_P2
2024/01/01 00:00:22;;;;;;;3.20;2.53;;;;;;;12.35;63.81;99677.13;5052933;28;20112;-75
2024/01/01 00:02:47;;;;;;;0.93;0.93;;;;;;;12.47;64.80;99677.59;5055683;28;20370;-74
2024/01/01 00:05:13;;;;;;;1.23;1.20;;;;;;;13.87;59.89;99673.94;5072507;28;20048;-75
2024/01/01 00:07:38;;;;;;;3.13;2.43;;;;;;;13.35;60.44;99676.88;5070269;28;20480;-75
2024/01/01 00:10:05;;;;;;;3.10;2.57;;;;;;;12.74;62.88;99670.47;5046699;28;20045;-74
2024/01/01 00:12:31;;;;;;;2.67;2.47;;;;;;;12.75;63.54;99666.06;5032413;28;20439;-74
2024/01/01 00:14:56;;;;;;;2.53;2.33;;;;;;;12.82;61.64;99673.66;5072088;28;20028;-75
2024/01/01 00:17:21;;;;;;;2.23;1.23;;;;;;;12.91;62.07;99669.81;5071943;28;20464;-74
2024/01/01 00:19:47;;;;;;;0.40;0.40;;;;;;;12.41;64.58;99672.59;5052479;28;20024;-74
2024/01/01 00:22:12;;;;;;;2.77;2.60;;;;;;;12.64;63.14;99684.81;5051219;28;20029;-74
2024/01/01 00:24:37;;;;;;;1.70;1.17;;;;;;;12.14;66.35;99664.78;5063858;28;20035;-74
2024/01/01 00:27:03;;;;;;;0.47;0.47;;;;;;;12.57;63.02;99658.00;5072523;28;20471;-74
2024/01/01 00:29:29;;;;;;;0.50;0.50;;;;;;;13.14;61.91;99668.09;5057206;28;20033;-74
2024/01/01 00:31:54;;;;;;;0.47;0.47;;;;;;;12.24;63.16;99665.31;5049454;28;20021;-75
2024/01/01 00:34:21;;;;;;;0.60;0.60;;;;;;;13.00;62.09;99656.38;5060351;28;20108;-74
2024/01/01 00:36:47;;;;;;;0.20;0.20;;;;;;;12.87;61.87;99665.59;5070448;28;20056;-73
2024/01/01 00:39:13;;;;;;;0.20;0.20;;;;;;;12.82;63.11;99667.56;5067117;28;20341;-75
2024/01/01 00:41:38;;;;;;;0.40;0.40;;;;;;;12.95;65.21;99666.16;5071770;28;20099;-75
2024/01/01 00:44:04;;;;;;;0.30;0.30;;;;;;;12.18;66.88;99676.84;5064657;28;20063;-75
2024/01/01 00:46:30;;;;;;;0.17;0.17;;;;;;;12.62;66.30;99663.06;5051080;28;20024;-75
2024/01/01 00:48:56;;;;;;;0.83;0.80;;;;;;;12.92;65.33;99647.94;5067060;28;20115;-75
2024/01/01 00:51:22;;;;;;;0.00;0.00;;;;;;;12.81;65.06;99665.84;5051529;28;20387;-75
2024/01/01 00:53:47;;;;;;;0.20;0.20;;;;;;;12.64;66.43;99661.22;5050335;28;20029;-75
2024/01/01 00:56:13;;;;;;;0.10;0.10;;;;;;;12.78;64.11;99663.34;5070509;28;20028;-75
2024/01/01 00:58:39;;;;;;;0.47;0.47;;;;;;;13.35;61.33;99666.38;5063157;28;20086;-75
2024/01/01 01:01:04;;;;;;;1.60;1.53;;;;;;;12.96;62.14;99660.03;5054897;28;20396;-75
2024/01/01 01:03:31;;;;;;;1.60;1.50;;;;;;;12.84;63.52;99655.25;5050088;28;20108;-75
2024/01/01 01:05:56;;;;;;;0.10;0.10;;;;;;;12.22;65.82;99658.34;5069882;28;20027;-75
2024/01/01 01:08:22;;;;;;;1.30;0.87;;;;;;;12.11;66.56;99664.88;5066252;28;20024;-75
2024/01/01 01:10:47;;;;;;;0.63;0.43;;;;;;;12.94;63.18;99674.09;5050963;28;20029;-74
2024/01/01 01:13:12;;;;;;;0.03;0.03;;;;;;;12.47;66.17;99677.59;5050414;28;20104;-75
2024/01/01 01:15:38;;;;;;;0.77;0.77;;;;;;;12.87;63.41;99674.34;5066085;28;20051;-75
2024/01/01 01:18:03;;;;;;;0.87;0.87;;;;;;;12.88;62.82;99664.69;5071392;28;20472;-75
2024/01/01 01:20:32;;;;;;;0.10;0.10;;;;;;;12.38;65.61;99669.16;5055259;28;20507;-74
2024/01/01 01:22:58;;;;;;;1.50;1.40;;;;;;;13.17;63.78;99691.59;5050206;28;20120;-75
2024/01/01 01:25:24;;;;;;;0.00;0.00;;;;;;;13.05;62.77;99685.91;5061553;28;20035;-74
2024/01/01 01:27:49;;;;;;;0.40;0.40;;;;;;;13.38;63.06;99684.66;5070204;28;20064;-75
2024/01/01 01:30:14;;;;;;;1.17;0.60;;;;;;;12.36;64.64;99707.66;5063875;28;20021;-75
2024/01/01 01:32:40;;;;;;;5.27;2.57;;;;;;;12.48;66.14;99700.28;5050938;28;20025;-74
2024/01/01 01:35:06;;;;;;;0.00;0.00;;;;;;;13.07;64.94;99710.28;5055255;28;20106;-75
2024/01/01 01:37:31;;;;;;;0.00;0.00;;;;;;;12.89;65.72;99721.50;5069317;28;20056;-75
2024/01/01 01:39:56;;;;;;;0.00;0.00;;;;;;;13.25;64.34;99718.38;5052133;28;20494;-75
2024/01/01 01:42:22;;;;;;;0.00;0.00;;;;;;;13.48;64.17;99735.03;5047562;28;20025;-75
2024/01/01 01:44:47;;;;;;;0.00;0.00;;;;;;;12.41;70.03;99740.72;5049800;28;20414;-75
2024/01/01 01:47:14;;;;;;;0.10;0.10;;;;;;;12.69;67.61;99725.72;5069504;28;20040;-76
2024/01/01 01:49:39;;;;;;;0.10;0.10;;;;;;;12.60;69.08;99726.03;5059450;28;20090;-76
2024/01/01 01:52:07;;;;;;;0.00;0.00;;;;;;;12.61;68.64;99733.00;5061003;28;20044;-75
2024/01/01 01:54:33;;;;;;;0.00;0.00;;;;;;;12.42;69.12;99738.03;5049182;28;20028;-75
2024/01/01 01:57:00;;;;;;;2.00;1.90;;;;;;;12.79;68.55;99741.09;5051400;28;20036;-75
2024/01/01 01:59:25;;;;;;;0.50;0.50;;;;;;;12.11;72.06;99733.00;5049506;28;20012;-75
2024/01/01 02:01:51;;;;;;;0.20;0.20;;;;;;;12.58;69.44;99733.09;5048143;28;20400;-75
2024/01/01 02:04:17;;;;;;;0.00;0.00;;;;;;;12.48;70.63;99731.72;5048771;28;20029;-75
2024/01/01 02:06:42;;;;;;;0.00;0.00;;;;;;;13.19;67.05;99727.34;5067249;28;20115;-76
2024/01/01 02:09:08;;;;;;;0.00;0.00;;;;;;;12.47;68.88;99736.09;5063186;28;20087;-75
2024/01/01 02:11:33;;;;;;;0.10;0.10;;;;;;;12.52;70.17;99743.81;5055621;28;20025;-75
2024/01/01 02:14:11;;;;;;;0.00;0.00;;;;;;;12.56;68.39;99734.94;5050815;28;20025;-75
2024/01/01 02:16:39;;;;;;;0.10;0.10;;;;;;;12.34;70.33;99732.22;5056258;28;20056;-75
2024/01/01 02:19:26;;;;;;;0.00;0.00;;;;;;;12.32;71.44;99742.75;5049303;28;20031;-76
2024/01/01 02:21:52;;;;;;;0.00;0.00;;;;;;;12.90;67.87;99733.72;5064574;28;20037;-75
2024/01/01 02:24:18;;;;;;;0.00;0.00;;;;;;;12.48;69.78;99744.81;5048514;28;20047;-75
2024/01/01 02:26:45;;;;;;;0.20;0.20;;;;;;;13.35;67.21;99740.78;5062593;28;20458;-76
2024/01/01 02:29:11;;;;;;;0.00;0.00;;;;;;;12.26;71.96;99742.94;5055548;28;20025;-76
2024/01/01 02:31:36;;;;;;;0.00;0.00;;;;;;;12.63;69.68;99739.03;5049392;28;20075;-76
2024/01/01 02:34:02;;;;;;;0.10;0.10;;;;;;;12.27;71.45;99738.53;5049268;28;20033;-75
2024/01/01 02:36:36;;;;;;;0.00;0.00;;;;;;;13.54;66.70;99745.28;5060059;28;20090;-75
2024/01/01 02:39:02;;;;;;;0.43;0.40;;;;;;;12.52;70.01;99728.06;5064791;28;20028;-76
2024/01/01 02:41:28;;;;;;;0.10;0.10;;;;;;;12.68;70.22;99744.09;5055561;28;20032;-75
2024/01/01 02:43:54;;;;;;;0.00;0.00;;;;;;;13.67;66.20;99730.75;5048575;28;20048;-76
2024/01/01 02:46:19;;;;;;;0.10;0.10;;;;;;;13.33;66.56;99742.56;5057843;28;20103;-76
2024/01/01 02:48:44;;;;;;;0.00;0.00;;;;;;;12.30;69.68;99739.31;5069206;28;20058;-76
2024/01/01 02:51:10;;;;;;;0.00;0.00;;;;;;;12.93;68.86;99743.19;5049963;28;20025;-74
2024/01/01 02:53:35;;;;;;;0.00;0.00;;;;;;;13.69;66.37;99744.66;5047839;28;20036;-76
2024/01/01 02:56:01;;;;;;;0.00;0.00;;;;;;;13.30;69.04;99726.94;5050088;28;20103;-75
2024/01/01 02:58:26;;;;;;;0.00;0.00;;;;;;;13.09;68.48;99733.00;5050749;28;20070;-75
2024/01/01 03:00:51;;;;;;;0.00;0.00;;;;;;;13.46;65.42;99742.94;5052278;28;20033;-75
2024/01/01 03:03:17;;;;;;;0.00;0.00;;;;;;;13.63;66.62;99744.06;5068984;28;20084;-76
2024/01/01 03:05:43;;;;;;;0.00;0.00;;;;;;;13.02;68.08;99738.50;5052211;28;20115;-75
2024/01/01 03:08:09;;;;;;;1.27;1.27;;;;;;;12.98;69.84;99736.03;5072860;28;20024;-75
2024/01/01 03:10:35;;;;;;;0.00;0.00;;;;;;;12.91;69.92;99751.13;5059318;28;20402;-74
2024/01/01 03:13:00;;;;;;;0.00;0.00;;;;;;;13.38;65.94;99748.53;5071562;28;20086;-76
2024/01/01 03:15:26;;;;;;;0.00;0.00;;;;;;;12.67;72.29;99758.97;5072763;28;20406;-76
2024/01/01 03:17:51;;;;;;;0.00;0.00;;;;;;;12.80;70.19;99748.91;5054138;28;20032;-75
2024/01/01 03:20:17;;;;;;;0.10;0.10;;;;;;;13.13;70.29;99755.59;5051687;28;20095;-75
2024/01/01 03:22:43;;;;;;;1.20;1.20;;;;;;;13.46;69.42;99758.69;5059808;28;20480;-75
2024/01/01 03:25:09;;;;;;;4.80;0.47;;;;;;;12.95;68.08;99763.22;5052908;28;20067;-75
2024/01/01 03:27:35;;;;;;;0.00;0.00;;;;;;;12.77;70.77;99763.91;5063886;28;20082;-75
2024/01/01 03:30:05;;;;;;;0.00;0.00;;;;;;;12.39;72.45;99769.56;5073424;28;20021;-76
2024/01/01 03:32:34;;;;;;;2.47;1.80;;;;;;;13.02;71.20;99764.72;5063227;28;20063;-76
2024/01/01 03:35:00;;;;;;;0.00;0.00;;;;;;;13.04;70.89;99757.63;5067250;28;20017;-75
2024/01/01 03:37:25;;;;;;;0.00;0.00;;;;;;;13.02;69.84;99749.00;5063099;28;20025;-76
2024/01/01 03:39:50;;;;;;;7.40;3.80;;;;;;;13.20;69.22;99778.91;5055947;28;20469;-76
2024/01/01 03:42:16;;;;;;;0.07;0.07;;;;;;;12.76;69.95;99764.81;5051053;28;20053;-75
2024/01/01 03:44:41;;;;;;;0.00;0.00;;;;;;;13.27;68.96;99762.94;5031654;28;20029;-76
2024/01/01 03:47:06;;;;;;;0.00;0.00;;;;;;;13.12;69.61;99770.47;5047430;28;20048;-76
2024/01/01 03:49:32;;;;;;;0.00;0.00;;;;;;;13.62;67.23;99766.84;5070083;28;20050;-75
2024/01/01 03:51:58;;;;;;;0.30;0.30;;;;;;;13.35;67.81;99760.88;5058069;28;20020;-76
2024/01/01 03:54:23;;;;;;;0.00;0.00;;;;;;;12.94;69.04;99777.28;5068966;28;20078;-75
2024/01/01 03:56:48;;;;;;;0.00;0.00;;;;;;;13.14;71.32;99768.63;5055851;28;20055;-75
2024/01/01 03:59:14;;;;;;;0.00;0.00;;;;;;;13.27;69.43;99763.81;5071854;28;20433;-75
2024/01/01 04:01:39;;;;;;;0.13;0.13;;;;;;;13.34;69.33;99775.78;5056617;28;20043;-76
2024/01/01 04:04:06;;;;;;;0.00;0.00;;;;;;;12.67;70.93;99771.25;5059855;28;20067;-75
2024/01/01 04:06:32;;;;;;;16.77;1.90;;;;;;;13.26;70.23;99775.19;5054363;28;20117;-75
2024/01/01 04:08:57;;;;;;;0.00;0.00;;;;;;;13.22;69.12;99789.34;5069915;28;20103;-75
2024/01/01 04:11:23;;;;;;;0.00;0.00;;;;;;;13.80;69.35;99788.03;5050182;28;20523;-75
2024/01/01 04:13:48;;;;;;;0.00;0.00;;;;;;;13.71;65.32;99784.88;5072565;28;20061;-75
2024/01/01 04:16:13;;;;;;;0.00;0.00;;;;;;;13.87;67.32;99795.59;5058333;28;20029;-75
2024/01/01 04:18:39;;;;;;;0.00;0.00;;;;;;;13.93;67.60;99804.16;5051151;28;20070;-76
2024/01/01 04:21:04;;;;;;;0.00;0.00;;;;;;;13.67;67.71;99809.53;5051564;28;20472;-76
2024/01/01 04:23:30;;;;;;;0.00;0.00;;;;;;;14.20;63.77;99803.03;5046328;28;20581;-76
2024/01/01 04:25:55;;;;;;;0.40;0.40;;;;;;;13.75;66.64;99806.59;5038119;28;20053;-76
2024/01/01 04:28:20;;;;;;;0.00;0.00;;;;;;;12.99;70.03;99812.03;5061834;28;20202;-75
2024/01/01 04:30:46;;;;;;;0.40;0.40;;;;;;;13.79;67.32;99809.97;5055880;28;20030;-76
2024/01/01 04:33:11;;;;;;;0.10;0.10;;;;;;;13.43;65.56;99799.97;5049121;28;20112;-75
2024/01/01 04:35:36;;;;;;;0.10;0.10;;;;;;;13.35;65.95;99813.34;5051128;28;20028;-76
2024/01/01 04:38:02;;;;;;;0.00;0.00;;;;;;;13.60;66.91;99817.69;5060298;28;20030;-75
2024/01/01 04:40:27;;;;;;;0.00;0.00;;;;;;;13.22;69.32;99821.69;5067405;28;20388;-75
2024/01/01 04:42:55;;;;;;;0.10;0.10;;;;;;;13.42;67.75;99825.34;5060809;28;20098;-75
2024/01/01 04:45:20;;;;;;;0.00;0.00;;;;;;;13.89;67.22;99824.47;5070127;28;20494;-75
2024/01/01 04:47:45;;;;;;;0.00;0.00;;;;;;;13.03;70.67;99824.13;5063114;28;20123;-75
2024/01/01 04:50:12;;;;;;;0.00;0.00;;;;;;;12.89;70.55;99827.25;5051995;28;20097;-75
2024/01/01 04:52:37;;;;;;;0.00;0.00;;;;;;;13.48;69.24;99829.56;5057826;28;20028;-75
2024/01/01 04:55:02;;;;;;;0.00;0.00;;;;;;;13.61;66.58;99846.53;5054100;28;20036;-76
2024/01/01 04:57:31;;;;;;;0.00;0.00;;;;;;;13.88;67.40;99834.09;5050569;28;20434;-75
2024/01/01 04:59:56;;;;;;;2.57;1.37;;;;;;;13.68;67.68;99834.88;5049861;28;20029;-75
2024/01/01 05:02:21;;;;;;;0.00;0.00;;;;;;;13.71;68.05;99826.88;5070922;28;20520;-76
2024/01/01 05:04:47;;;;;;;0.00;0.00;;;;;;;13.96;64.41;99841.69;5058175;28;20544;-76
2024/01/01 05:07:12;;;;;;;0.00;0.00;;;;;;;13.26;68.42;99846.06;5052336;28;20033;-75
2024/01/01 05:09:37;;;;;;;0.20;0.20;;;;;;;13.92;66.86;99837.47;5071075;28;20024;-75
2024/01/01 05:12:03;;;;;;;0.00;0.00;;;;;;;13.20;69.39;99833.16;5057418;28;20040;-76
2024/01/01 05:14:31;;;;;;;0.93;0.93;;;;;;;13.44;69.08;99844.53;5070751;28;20025;-75
2024/01/01 05:16:56;;;;;;;0.00;0.00;;;;;;;13.55;68.32;99852.03;5070284;28;20084;-75
2024/01/01 05:19:22;;;;;;;0.00;0.00;;;;;;;13.68;65.59;99863.78;5049869;28;20548;-75
2024/01/01 05:21:47;;;;;;;0.00;0.00;;;;;;;14.16;64.60;99868.91;5065849;28;20609;-75
2024/01/01 05:24:12;;;;;;;0.00;0.00;;;;;;;14.00;64.35;99869.53;5069378;28;20404;-75
2024/01/01 05:26:38;;;;;;;0.63;0.30;;;;;;;13.39;67.93;99870.97;5053375;28;20419;-75
2024/01/01 05:29:03;;;;;;;0.00;0.00;;;;;;;13.65;65.90;99874.38;5068405;28;20070;-75
2024/01/01 05:31:31;;;;;;;0.00;0.00;;;;;;;13.31;68.01;99886.13;5069992;28;20404;-76
2024/01/01 05:33:57;;;;;;;0.00;0.00;;;;;;;13.53;66.89;99874.84;5065681;28;20021;-75
2024/01/01 05:36:22;;;;;;;0.00;0.00;;;;;;;14.18;62.45;99880.25;5060041;28;20507;-75
2024/01/01 05:38:48;;;;;;;0.00;0.00;;;;;;;13.39;66.07;99873.59;5077633;28;20432;-75
2024/01/01 05:41:13;;;;;;;0.00;0.00;;;;;;;13.96;64.36;99873.19;5066249;28;20049;-75
2024/01/01 05:43:38;;;;;;;0.00;0.00;;;;;;;13.79;63.89;99871.22;5054187;28;20021;-75
2024/01/01 05:46:04;;;;;;;2.53;2.33;;;;;;;12.80;69.61;99887.03;5051018;28;20021;-75
2024/01/01 05:48:29;;;;;;;0.00;0.00;;;;;;;13.12;70.68;99901.66;5053735;28;20127;-75
2024/01/01 05:50:54;;;;;;;3.40;0.83;;;;;;;13.24;68.50;99905.59;5056710;28;20029;-75
2024/01/01 05:53:20;;;;;;;0.00;0.00;;;;;;;13.30;68.67;99915.00;5054213;28;20102;-76
2024/01/01 05:55:46;;;;;;;0.00;0.00;;;;;;;14.16;63.56;99913.59;5059997;28;20061;-76
2024/01/01 05:58:11;;;;;;;0.00;0.00;;;;;;;13.16;67.70;99916.38;5050391;28;20032;-76
2024/01/01 06:00:38;;;;;;;0.00;0.00;;;;;;;14.21;64.26;99903.75;5065286;28;20023;-75
2024/01/01 06:03:04;;;;;;;1.20;1.20;;;;;;;14.17;61.61;99912.69;5047937;28;20029;-75
2024/01/01 06:05:31;;;;;;;0.00;0.00;;;;;;;13.60;64.39;99907.84;5052151;28;20030;-74
2024/01/01 06:07:56;;;;;;;0.00;0.00;;;;;;;13.38;66.07;99924.38;5028830;28;20070;-75
2024/01/01 06:10:22;;;;;;;0.00;0.00;;;;;;;14.29;63.77;99919.22;5059094;28;20029;-75
2024/01/01 06:12:47;;;;;;;0.30;0.30;;;;;;;13.94;65.42;99922.31;5055909;28;20082;-75
2024/01/01 06:15:13;;;;;;;0.87;0.87;;;;;;;13.79;64.12;99938.66;5062020;28;20128;-75
2024/01/01 06:17:38;;;;;;;0.00;0.00;;;;;;;13.60;65.10;99923.59;5067316;28;20056;-75
2024/01/01 06:20:04;;;;;;;0.00;0.00;;;;;;;13.87;64.99;99931.34;5052145;28;20029;-76
2024/01/01 06:22:30;;;;;;;0.10;0.10;;;;;;;13.45;65.16;99945.13;5029144;28;20029;-75
2024/01/01 06:24:55;;;;;;;1.03;1.03;;;;;;;12.93;67.29;99964.41;5050378;28;20029;-75
2024/01/01 06:27:21;;;;;;;0.00;0.00;;;;;;;13.59;66.65;99963.91;5049150;28;20033;-75
2024/01/01 06:29:47;;;;;;;0.00;0.00;;;;;;;13.07;68.41;99956.91;5056533;28;20032;-76
2024/01/01 06:32:12;;;;;;;0.00;0.00;;;;;;;14.08;64.23;99962.06;5067292;28;20028;-76
2024/01/01 06:34:37;;;;;;;0.00;0.00;;;;;;;13.23;67.93;99974.75;5066167;28;20020;-75
2024/01/01 06:37:03;;;;;;;3.00;2.07;;;;;;;13.78;65.57;99995.59;5067292;28;20059;-74
2024/01/01 06:39:32;;;;;;;0.00;0.00;;;;;;;13.98;65.46;99971.19;5063636;28;20098;-75
2024/01/01 06:41:57;;;;;;;0.00;0.00;;;;;;;13.29;68.84;99979.78;5048981;28;20131;-75
2024/01/01 06:44:25;;;;;;;0.00;0.00;;;;;;;13.49;68.35;99988.75;5052248;28;20115;-76
2024/01/01 06:46:50;;;;;;;0.00;0.00;;;;;;;13.70;66.90;99993.22;5068005;28;20127;-76
2024/01/01 06:49:16;;;;;;;0.00;0.00;;;;;;;14.45;63.31;100006.22;5027544;28;1134052;-77
2024/01/01 06:51:41;;;;;;;0.00;0.00;;;;;;;14.03;65.04;100020.97;5048636;28;20124;-78
2024/01/01 06:54:06;;;;;;;0.00;0.00;;;;;;;15.09;61.01;100019.44;5051038;28;20021;-78
2024/01/01 06:56:32;;;;;;;0.00;0.00;;;;;;;14.11;63.23;100018.03;5056378;28;20021;-78
2024/01/01 06:58:57;;;;;;;0.00;0.00;;;;;;;14.66;62.45;100025.56;5048924;28;20056;-77
2024/01/01 07:01:22;;;;;;;0.00;0.00;;;;;;;14.46;60.84;100013.19;5073213;28;20055;-74
2024/01/01 07:03:48;;;;;;;0.00;0.00;;;;;;;13.65;64.15;100021.41;5057132;28;20037;-76
2024/01/01 07:06:13;;;;;;;0.00;0.00;;;;;;;14.54;61.65;100021.66;5046979;28;20029;-75
2024/01/01 07:08:39;;;;;;;0.60;0.60;;;;;;;14.25;62.15;100031.50;5045464;28;20022;-76
2024/01/01 07:11:04;;;;;;;0.00;0.00;;;;;;;14.64;61.50;100032.69;5062538;28;20028;-75
2024/01/01 07:13:30;;;;;;;0.00;0.00;;;;;;;14.47;60.84;100043.84;5048378;28;20100;-75
2024/01/01 07:15:55;;;;;;;0.00;0.00;;;;;;;14.03;64.57;100045.44;5051111;28;20029;-76
2024/01/01 07:18:21;;;;;;;0.00;0.00;;;;;;;13.71;64.63;100055.34;5065472;28;20029;-75
2024/01/01 07:20:46;;;;;;;0.47;0.47;;;;;;;14.32;63.12;100066.31;5061048;28;20032;-75
2024/01/01 07:23:12;;;;;;;0.30;0.30;;;;;;;14.64;61.74;100064.25;5059151;28;20030;-76
2024/01/01 07:25:37;;;;;;;0.00;0.00;;;;;;;13.97;64.96;100079.84;5046759;28;20496;-76
2024/01/01 07:28:03;;;;;;;0.00;0.00;;;;;;;14.16;62.30;100079.16;5044514;28;20091;-75
2024/01/01 07:30:31;;;;;;;0.00;0.00;;;;;;;13.98;62.61;100080.69;5051862;28;20025;-75
2024/01/01 07:32:56;;;;;;;0.00;0.00;;;;;;;14.52;61.01;100084.81;5069721;28;20033;-75
2024/01/01 07:35:22;;;;;;;1.77;0.57;;;;;;;14.27;60.42;100092.75;5057704;28;20016;-75
2024/01/01 07:37:47;;;;;;;0.00;0.00;;;;;;;14.55;59.10;100097.00;5048132;28;20029;-75
2024/01/01 07:40:12;;;;;;;0.00;0.00;;;;;;;14.23;57.43;100096.41;5047937;28;20503;-76
2024/01/01 07:42:38;;;;;;;0.00;0.00;;;;;;;14.39;58.11;100092.28;5032603;28;20392;-76
2024/01/01 07:45:03;;;;;;;0.00;0.00;;;;;;;15.05;56.74;100096.78;5059676;28;20020;-76
2024/01/01 07:47:29;;;;;;;0.30;0.30;;;;;;;14.97;56.59;100098.03;5075074;28;20040;-76
2024/01/01 07:49:54;;;;;;;0.00;0.00;;;;;;;15.04;57.03;100100.38;5068023;28;20048;-76
2024/01/01 07:52:20;;;;;;;0.00;0.00;;;;;;;14.57;58.08;100105.66;5047225;28;20629;-76
2024/01/01 07:54:45;;;;;;;0.00;0.00;;;;;;;14.95;57.45;100095.47;5050394;28;20020;-76
2024/01/01 07:57:10;;;;;;;0.00;0.00;;;;;;;14.61;58.56;100107.25;5048460;28;20041;-76
2024/01/01 07:59:36;;;;;;;0.00;0.00;;;;;;;15.09;57.46;100114.19;5050564;28;20389;-76
2024/01/01 08:02:01;;;;;;;0.00;0.00;;;;;;;14.87;57.75;100114.19;5071399;28;20047;-75
2024/01/01 08:04:27;;;;;;;0.00;0.00;;;;;;;14.65;59.07;100122.03;5058436;28;20029;-75
2024/01/01 08:06:52;;;;;;;0.00;0.00;;;;;;;14.70;59.04;100127.13;5052576;28;20032;-76
2024/01/01 08:09:17;;;;;;;0.00;0.00;;;;;;;14.03;60.52;100140.03;5050983;28;20115;-75
2024/01/01 08:11:43;;;;;;;0.00;0.00;;;;;;;12.93;61.77;100142.75;5050831;28;20061;-75
2024/01/01 08:14:08;;;;;;;0.00;0.00;;;;;;;14.13;59.59;100131.84;5040589;28;20021;-76
2024/01/01 08:16:34;;;;;;;0.00;0.00;;;;;;;14.22;57.84;100136.78;5066972;28;20060;-76
2024/01/01 08:18:59;;;;;;;0.00;0.00;;;;;;;14.18;57.18;100140.44;5071760;28;20024;-75
2024/01/01 08:21:25;;;;;;;0.00;0.00;;;;;;;13.83;56.96;100151.22;5057175;28;20036;-75
2024/01/01 08:23:50;;;;;;;0.00;0.00;;;;;;;13.43;59.55;100177.97;5052181;28;20431;-75
2024/01/01 08:26:16;;;;;;;0.00;0.00;;;;;;;13.41;59.04;100164.91;5064595;28;20028;-76
2024/01/01 08:28:51;;;;;;;0.00;0.00;;;;;;;13.38;57.50;100170.22;5058002;28;20025;-76
2024/01/01 08:31:17;;;;;;;0.00;0.00;;;;;;;13.46;57.78;100167.38;5064159;28;20092;-76
2024/01/01 08:33:42;;;;;;;0.00;0.00;;;;;;;14.27;55.99;100163.72;5061168;28;20029;-76
2024/01/01 08:36:08;;;;;;;0.00;0.00;;;;;;;14.05;56.25;100167.13;5064307;28;20035;-76
2024/01/01 08:38:33;;;;;;;0.00;0.00;;;;;;;14.17;55.30;100175.50;5070085;28;20046;-76
2024/01/01 08:40:58;;;;;;;0.00;0.00;;;;;;;14.53;53.24;100189.06;5057709;28;20524;-76
2024/01/01 08:43:24;;;;;;;0.40;0.40;;;;;;;14.72;54.42;100198.97;5049015;28;20520;-77
2024/01/01 08:45:49;;;;;;;0.00;0.00;;;;;;;13.62;57.50;100210.59;5059401;28;20033;-77
2024/01/01 08:48:14;;;;;;;0.00;0.00;;;;;;;13.39;58.19;100204.34;5051136;28;20080;-76
2024/01/01 08:50:40;;;;;;;0.03;0.03;;;;;;;13.71;57.95;100207.69;5054824;28;20036;-76
2024/01/01 08:53:05;;;;;;;0.00;0.00;;;;;;;14.83;55.08;100202.03;5069956;28;20024;-75
2024/01/01 08:55:31;;;;;;;0.00;0.00;;;;;;;14.70;53.79;100206.91;5049323;28;20451;-76
2024/01/01 08:57:57;;;;;;;0.00;0.00;;;;;;;14.83;53.43;100211.72;5050408;28;20029;-75
2024/01/01 09:00:23;;;;;;;0.00;0.00;;;;;;;14.18;54.01;100220.13;5067983;28;20017;-75
2024/01/01 09:02:48;;;;;;;0.00;0.00;;;;;;;15.43;51.57;100223.41;5050478;28;20304;-75
2024/01/01 09:05:15;;;;;;;0.00;0.00;;;;;;;15.50;50.81;100229.28;5065968;28;20029;-76
2024/01/01 09:07:41;;;;;;;0.00;0.00;;;;;;;15.81;50.45;100227.22;5058841;28;20036;-75
2024/01/01 09:10:07;;;;;;;0.00;0.00;;;;;;;14.78;52.31;100229.44;5046994;28;20022;-75
2024/01/01 09:12:33;;;;;;;0.00;0.00;;;;;;;15.50;50.87;100212.66;5062359;28;20025;-75
2024/01/01 09:14:58;;;;;;;0.00;0.00;;;;;;;15.63;51.23;100237.53;5046958;28;20117;-75
2024/01/01 09:17:24;;;;;;;0.13;0.13;;;;;;;15.47;51.49;100229.41;5055945;28;20439;-75
2024/01/01 09:19:52;;;;;;;0.00;0.00;;;;;;;14.37;53.51;100236.09;5049227;28;20039;-76
2024/01/01 09:22:18;;;;;;;0.00;0.00;;;;;;;15.36;52.01;100236.88;5065750;28;20068;-76
2024/01/01 09:24:43;;;;;;;0.00;0.00;;;;;;;15.38;51.73;100235.88;5050512;28;20040;-76
2024/01/01 09:27:09;;;;;;;6.20;1.13;;;;;;;15.22;51.87;100240.03;5063796;28;20407;-75
2024/01/01 09:29:35;;;;;;;0.00;0.00;;;;;;;15.28;52.26;100245.09;5054844;28;20029;-75
2024/01/01 09:32:00;;;;;;;0.20;0.20;;;;;;;14.49;52.70;100255.00;5055051;28;20509;-75
2024/01/01 09:34:25;;;;;;;0.00;0.00;;;;;;;14.85;52.42;100257.22;5050871;28;20047;-75
2024/01/01 09:36:51;;;;;;;0.00;0.00;;;;;;;14.42;53.36;100256.97;5061907;28;20487;-75
2024/01/01 09:39:16;;;;;;;0.00;0.00;;;;;;;14.57;53.90;100263.47;5071075;28;20503;-75
2024/01/01 09:41:42;;;;;;;0.00;0.00;;;;;;;14.14;54.55;100268.44;5059375;28;20032;-75
2024/01/01 09:44:10;;;;;;;0.10;0.10;;;;;;;14.81;53.25;100271.41;5050785;28;20033;-75
2024/01/01 09:46:36;;;;;;;0.00;0.00;;;;;;;14.84;52.86;100271.31;5047414;28;20029;-75
2024/01/01 09:49:02;;;;;;;0.00;0.00;;;;;;;14.74;52.77;100287.44;5049804;28;20041;-75
2024/01/01 09:51:27;;;;;;;0.00;0.00;;;;;;;14.06;53.83;100281.81;5055903;28;20028;-75
2024/01/01 09:53:53;;;;;;;0.00;0.00;;;;;;;14.38;53.70;100298.31;5062146;28;20032;-75
2024/01/01 09:56:20;;;;;;;0.00;0.00;;;;;;;15.03;51.88;100288.13;5051630;28;20036;-75
2024/01/01 09:58:45;;;;;;;0.00;0.00;;;;;;;15.47;51.32;100291.75;5068040;28;20408;-75
2024/01/01 10:01:13;;;;;;;0.00;0.00;;;;;;;15.64;51.24;100307.75;5048131;28;20033;-75
2024/01/01 10:03:41;;;;;;;0.00;0.00;;;;;;;15.05;52.39;100311.75;5042190;28;20503;-75
2024/01/01 10:06:09;;;;;;;0.00;0.00;;;;;;;14.33;53.78;100315.13;5041127;28;20120;-75
2024/01/01 10:08:34;;;;;;;0.00;0.00;;;;;;;15.27;52.06;100306.56;5051325;28;20100;-75
2024/01/01 10:11:18;;;;;;;0.30;0.30;;;;;;;14.82;52.39;100315.22;5048039;28;20465;-75
2024/01/01 10:13:44;;;;;;;0.00;0.00;;;;;;;14.88;52.45;100315.03;5030443;28;20056;-75
2024/01/01 10:16:10;;;;;;;0.00;0.00;;;;;;;14.97;52.00;100329.59;5039954;28;20041;-75
2024/01/01 10:18:35;;;;;;;0.00;0.00;;;;;;;14.66;52.60;100330.69;5047211;28;20112;-75
2024/01/01 10:21:13;;;;;;;0.00;0.00;;;;;;;14.37;53.08;100328.13;5049919;28;20040;-74
2024/01/01 10:23:39;;;;;;;0.00;0.00;;;;;;;14.78;52.17;100340.78;5052659;28;20082;-75
2024/01/01 10:26:11;;;;;;;0.00;0.00;;;;;;;15.16;51.00;100335.06;5047210;28;20028;-75
2024/01/01 10:28:37;;;;;;;0.00;0.00;;;;;;;15.32;50.80;100336.19;5050917;28;20063;-75
2024/01/01 10:31:03;;;;;;;0.00;0.00;;;;;;;14.99;51.78;100338.28;5041686;28;20053;-75
2024/01/01 10:33:31;;;;;;;0.20;0.20;;;;;;;15.66;50.46;100334.91;5043401;28;20449;-75
2024/01/01 10:35:59;;;;;;;0.00;0.00;;;;;;;14.55;51.26;100344.19;5049023;28;20025;-74
2024/01/01 10:38:26;;;;;;;0.00;0.00;;;;;;;16.02;49.24;100341.44;5063491;28;20534;-75
2024/01/01 10:40:55;;;;;;;0.00;0.00;;;;;;;14.97;50.97;100346.25;5048227;28;20040;-74
2024/01/01 10:43:22;;;;;;;0.00;0.00;;;;;;;16.57;47.88;100339.16;5059061;28;20024;-75
2024/01/01 10:45:49;;;;;;;0.00;0.00;;;;;;;15.57;49.53;100341.38;5059053;28;20040;-74
2024/01/01 10:48:15;;;;;;;0.00;0.00;;;;;;;16.91;46.21;100329.78;5052174;28;20053;-75
2024/01/01 10:50:54;;;;;;;0.00;0.00;;;;;;;16.55;47.57;100334.84;5047072;28;20126;-75
2024/01/01 10:53:42;;;;;;;0.00;0.00;;;;;;;16.11;48.53;100336.66;5061647;28;20043;-74
2024/01/01 10:56:48;;;;;;;0.00;0.00;;;;;;;16.15;48.13;100347.91;5044658;28;20040;-75
2024/01/01 10:59:17;;;;;;;0.00;0.00;;;;;;;16.27;47.99;100341.28;5049607;28;20036;-74
2024/01/01 11:01:43;;;;;;;1.97;1.80;;;;;;;17.27;46.39;100350.19;5046402;28;20040;-75
2024/01/01 11:04:12;;;;;;;0.00;0.00;;;;;;;16.51;47.27;100352.56;5063859;28;20043;-74
2024/01/01 11:06:43;;;;;;;0.10;0.10;;;;;;;16.03;47.69;100344.03;5047166;28;20044;-75
2024/01/01 11:09:24;;;;;;;0.00;0.00;;;;;;;16.57;46.57;100348.84;5051282;28;20029;-75
2024/01/01 11:11:54;;;;;;;7.10;1.93;;;;;;;16.54;46.91;100359.50;5043115;28;20042;-75
2024/01/01 11:14:26;;;;;;;0.00;0.00;;;;;;;15.90;47.78;100364.72;5075906;28;20025;-75
2024/01/01 11:16:53;;;;;;;0.00;0.00;;;;;;;15.70;47.74;100373.41;5061284;28;20043;-75
2024/01/01 11:19:38;;;;;;;0.00;0.00;;;;;;;15.66;48.38;100373.56;5051114;28;20033;-74
2024/01/01 11:22:18;;;;;;;0.00;0.00;;;;;;;14.89;49.83;100377.22;5047836;28;20036;-74
2024/01/01 11:24:45;;;;;;;1.03;1.03;;;;;;;15.89;48.45;100372.69;5030867;28;20045;-75